createdAt,value
2022-11-16T00:03:04.037Z,36.97
2022-11-16T00:08:08.357Z,36.38
2022-11-16T00:13:11.261Z,36.05
2022-11-16T00:18:14.117Z,36.30
2022-11-16T00:23:18.565Z,35.88
2022-11-16T00:28:21.421Z,35.83
2022-11-16T00:33:24.302Z,35.63
2022-11-16T00:38:29.208Z,35.83
2022-11-16T00:43:32.144Z,35.47
2022-11-16T00:48:35.403Z,35.45
2022-11-16T00:53:39.920Z,34.88
2022-11-16T00:58:42.826Z,35.67
2022-11-16T01:03:47.707Z,35.55
2022-11-16T01:08:52.466Z,34.95
2022-11-16T01:13:56.364Z,36.00
2022-11-16T01:18:59.243Z,34.88
2022-11-16T01:24:03.563Z,35.50
2022-11-16T01:29:06.464Z,35.20
2022-11-16T01:34:14.148Z,36.28
2022-11-16T01:39:19.524Z,35.65
2022-11-16T01:45:01.854Z,36.13
2022-11-16T01:50:10.121Z,35.58
2022-11-16T01:55:16.203Z,36.50
2022-11-16T02:00:40.141Z,36.67
2022-11-16T02:06:13.526Z,36.05
2022-11-16T02:11:44.942Z,37.30
2022-11-16T02:17:00.805Z,37.50
2022-11-16T02:22:25.183Z,36.22
2022-11-16T02:27:50.649Z,34.42
2022-11-16T02:33:00.417Z,34.88
2022-11-16T02:38:07.954Z,34.67
2022-11-16T02:43:14.343Z,34.28
2022-11-16T02:48:24.427Z,34.38
2022-11-16T02:53:28.859Z,34.25
2022-11-16T02:58:35.564Z,33.95
2022-11-16T03:03:44.919Z,33.72
2022-11-16T03:08:53.225Z,33.33
2022-11-16T03:13:58.916Z,33.88
2022-11-16T03:19:06.397Z,33.67
2022-11-16T03:24:11.899Z,33.78
2022-11-16T03:29:21.281Z,33.58
2022-11-16T03:34:32.547Z,33.13
2022-11-16T03:39:39.326Z,34.00
2022-11-16T03:44:46.057Z,33.83
2022-11-16T03:49:50.383Z,33.15
2022-11-16T03:54:55.474Z,33.60
2022-11-16T04:00:00.734Z,33.42
2022-11-16T04:05:25.125Z,33.90
2022-11-16T04:10:46.086Z,33.08
2022-11-16T04:16:06.693Z,33.53
2022-11-16T04:21:36.903Z,33.40
2022-11-16T04:26:59.549Z,33.60
2022-11-16T04:32:20.341Z,34.08
2022-11-16T04:37:42.666Z,33.63
2022-11-16T04:42:51.932Z,33.92
2022-11-16T04:47:55.150Z,33.40
2022-11-16T04:53:05.433Z,33.35
2022-11-16T04:58:14.704Z,33.42
2022-11-16T05:03:17.670Z,33.42
2022-11-16T05:08:22.572Z,33.38
2022-11-16T05:13:27.424Z,33.58
2022-11-16T05:18:30.667Z,34.55
2022-11-16T05:23:52.589Z,34.78
2022-11-16T05:28:58.217Z,34.20
2022-11-16T05:34:02.441Z,38.45
2022-11-16T05:39:07.164Z,34.45
2022-11-16T05:44:12.578Z,35.00
2022-11-16T05:49:21.218Z,34.72
2022-11-16T05:54:26.738Z,34.05
2022-11-16T05:59:30.344Z,34.20
2022-11-16T06:04:39.061Z,33.78
2022-11-16T06:09:43.746Z,34.33
2022-11-16T06:14:53.661Z,33.30
2022-11-16T06:19:58.850Z,32.92
2022-11-16T06:25:04.968Z,33.92
2022-11-16T06:30:10.607Z,33.55
2022-11-16T06:35:15.020Z,34.17
2022-11-16T06:40:20.212Z,33.58
2022-11-16T06:45:23.354Z,33.42
2022-11-16T06:50:30.558Z,33.13
2022-11-16T06:55:35.584Z,33.63
2022-11-16T07:00:39.989Z,33.20
2022-11-16T07:05:44.778Z,33.35
2022-11-16T07:10:52.428Z,33.45
2022-11-16T07:15:55.402Z,33.25
2022-11-16T07:20:58.605Z,33.28
2022-11-16T07:26:04.008Z,33.97
2022-11-16T07:31:16.556Z,33.53
2022-11-16T07:36:20.570Z,33.22
2022-11-16T07:41:25.987Z,33.15
2022-11-16T07:46:48.471Z,33.58
2022-11-16T07:51:52.618Z,33.40
2022-11-16T07:57:19.899Z,33.65
2022-11-16T08:02:23.322Z,33.50
2022-11-16T08:07:27.380Z,33.58
2022-11-16T08:12:33.849Z,33.97
2022-11-16T08:17:37.493Z,33.70
2022-11-16T08:22:41.958Z,33.65
2022-11-16T08:27:47.722Z,33.85
2022-11-16T08:32:53.452Z,34.83
2022-11-16T08:37:56.512Z,34.03
2022-11-16T08:43:02.455Z,33.88
2022-11-16T08:48:06.177Z,33.75
2022-11-16T08:53:11.731Z,33.90
2022-11-16T08:58:16.314Z,33.53
2022-11-16T09:03:19.397Z,33.65
2022-11-16T09:08:22.321Z,34.17
2022-11-16T09:13:27.056Z,34.08
2022-11-16T09:18:31.370Z,33.95
2022-11-16T09:23:34.497Z,34.13
2022-11-16T09:28:38.717Z,33.95
2022-11-16T09:33:41.674Z,34.03
2022-11-16T09:39:18.987Z,33.70
2022-11-16T09:44:25.995Z,33.80
2022-11-16T09:49:34.332Z,33.55
2022-11-16T09:54:41.316Z,33.67
2022-11-16T09:59:49.569Z,34.05
2022-11-16T10:04:58.527Z,33.80
2022-11-16T10:10:01.765Z,34.03
2022-11-16T10:15:28.365Z,33.67
2022-11-16T10:20:45.328Z,33.22
2022-11-16T10:25:54.240Z,33.55
2022-11-16T10:31:04.531Z,33.65
2022-11-16T10:36:14.174Z,34.03
2022-11-16T10:41:21.043Z,33.35
2022-11-16T10:46:29.269Z,34.08
2022-11-16T10:51:32.208Z,33.70
2022-11-16T10:56:37.491Z,33.65
2022-11-16T11:01:43.722Z,33.75
2022-11-16T11:06:48.799Z,33.78
2022-11-16T11:12:21.507Z,33.65
2022-11-16T11:17:29.501Z,34.53
2022-11-16T11:22:44.995Z,34.40
2022-11-16T11:28:17.034Z,34.05
2022-11-16T11:33:30.114Z,33.78
2022-11-16T11:38:34.295Z,34.13
2022-11-16T11:43:41.343Z,34.55
2022-11-16T11:48:52.479Z,33.65
2022-11-16T11:53:57.513Z,34.53
2022-11-16T11:59:00.486Z,33.95
2022-11-16T12:04:41.918Z,34.08
2022-11-16T12:09:52.989Z,34.40
2022-11-16T12:15:07.534Z,33.85
2022-11-16T12:20:32.844Z,34.63
2022-11-16T12:25:42.786Z,34.25
2022-11-16T12:30:58.450Z,34.25
2022-11-16T12:36:06.491Z,34.03
2022-11-16T12:41:27.830Z,33.85
2022-11-16T12:46:42.033Z,33.58
2022-11-16T12:51:56.186Z,33.95
2022-11-16T12:57:08.792Z,33.75
2022-11-16T13:02:26.217Z,33.97
2022-11-16T13:07:34.131Z,33.90
2022-11-16T13:12:39.136Z,34.00
2022-11-16T13:17:55.951Z,34.17
2022-11-16T13:23:03.598Z,33.63
2022-11-16T13:28:17.114Z,33.92
2022-11-16T13:33:31.411Z,33.50
2022-11-16T13:38:53.995Z,33.60
2022-11-16T13:43:58.785Z,33.92
2022-11-16T13:49:01.682Z,34.70
2022-11-16T13:54:44.109Z,34.50
2022-11-16T13:59:32.655Z,34.22
2022-11-16T14:04:41.634Z,34.35
2022-11-16T14:09:46.193Z,34.33
2022-11-16T14:15:15.458Z,34.47
2022-11-16T14:20:46.874Z,34.00
2022-11-16T14:25:57.776Z,34.03
2022-11-16T14:31:14.632Z,34.13
2022-11-16T14:36:17.778Z,34.03
2022-11-16T14:41:23.554Z,34.03
2022-11-16T14:46:31.955Z,34.42
2022-11-16T14:51:37.829Z,33.88
2022-11-16T14:56:57.109Z,34.17
2022-11-16T15:02:19.978Z,33.83
2022-11-16T15:07:24.529Z,33.95
2022-11-16T15:12:42.227Z,33.67
2022-11-16T15:17:53.211Z,34.38
2022-11-16T15:22:58.260Z,33.83
2022-11-16T15:28:03.425Z,33.70
2022-11-16T15:33:12.661Z,33.70
2022-11-16T15:38:18.723Z,33.92
2022-11-16T15:43:24.951Z,33.95
2022-11-16T15:48:29.746Z,33.50
2022-11-16T15:53:36.798Z,33.60
2022-11-16T15:58:41.331Z,33.45
2022-11-16T16:03:55.827Z,34.72
2022-11-16T16:09:05.605Z,38.47
2022-11-16T16:14:10.740Z,34.45
2022-11-16T16:19:33.510Z,34.63
2022-11-16T16:24:45.936Z,33.92
2022-11-16T16:29:50.347Z,33.67
2022-11-16T16:34:55.166Z,33.45
2022-11-16T16:39:58.370Z,33.92
2022-11-16T16:45:02.172Z,33.95
2022-11-16T16:50:07.484Z,33.65
2022-11-16T16:55:10.591Z,33.85
2022-11-16T17:00:14.522Z,33.45
2022-11-16T17:05:18.785Z,33.67
2022-11-16T17:10:21.703Z,33.38
2022-11-16T17:15:31.988Z,33.55
2022-11-16T17:20:37.540Z,33.25
2022-11-16T17:25:40.544Z,33.63
2022-11-16T17:30:43.405Z,33.20
2022-11-16T17:35:58.952Z,33.55
2022-11-16T17:41:09.629Z,33.42
2022-11-16T17:46:40.520Z,33.60
2022-11-16T17:52:20.204Z,33.92
2022-11-16T17:58:05.865Z,33.60
2022-11-16T18:03:40.346Z,34.47
2022-11-16T18:08:45.062Z,34.13
2022-11-16T18:13:48.744Z,34.65
2022-11-16T18:18:57.012Z,35.28
2022-11-16T18:24:01.464Z,34.53
2022-11-16T18:29:04.660Z,34.47
2022-11-16T18:34:07.637Z,33.78
2022-11-16T18:39:11.915Z,33.60
2022-11-16T18:44:14.853Z,33.70
2022-11-16T18:49:17.736Z,34.42
2022-11-16T18:54:21.974Z,33.50
2022-11-16T18:59:27.763Z,34.15
2022-11-16T19:04:30.683Z,33.58
2022-11-16T19:09:35.361Z,33.78
2022-11-16T19:14:39.237Z,33.58
2022-11-16T19:19:42.214Z,34.33
2022-11-16T19:24:46.417Z,34.15
2022-11-16T19:29:49.273Z,33.55
2022-11-16T19:34:52.195Z,33.90
2022-11-16T19:39:56.475Z,34.03
2022-11-16T19:44:59.353Z,33.60
2022-11-16T19:50:02.356Z,34.15
2022-11-16T19:55:07.301Z,33.35
2022-11-16T20:00:11.461Z,33.72
2022-11-16T20:05:14.390Z,33.58
2022-11-16T20:10:19.052Z,33.33
2022-11-16T20:15:23.798Z,33.40
2022-11-16T20:20:26.708Z,34.08
2022-11-16T20:25:31.505Z,34.17
2022-11-16T20:30:34.394Z,34.10
2022-11-16T20:35:37.245Z,33.55
2022-11-16T20:40:41.534Z,34.00
2022-11-16T20:45:44.369Z,36.17
2022-11-16T20:50:52.450Z,34.35
2022-11-16T20:55:57.419Z,33.55
2022-11-16T21:01:01.441Z,34.45
2022-11-16T21:06:04.783Z,33.63
2022-11-16T21:11:12.622Z,34.00
2022-11-16T21:16:16.317Z,34.22
2022-11-16T21:21:19.221Z,33.75
2022-11-16T21:26:25.672Z,34.50
2022-11-16T21:31:30.433Z,34.45
2022-11-16T21:36:34.225Z,33.75
2022-11-16T21:41:38.449Z,33.45
2022-11-16T21:46:41.281Z,34.65
2022-11-16T21:51:44.165Z,33.35
2022-11-16T21:56:48.443Z,34.60
2022-11-16T22:02:00.812Z,34.53
2022-11-16T22:07:21.280Z,33.47
2022-11-16T22:12:26.099Z,34.58
2022-11-16T22:17:29.272Z,34.60
2022-11-16T22:22:32.142Z,35.03
2022-11-16T22:27:52.386Z,34.08
2022-11-16T22:32:59.308Z,34.33
2022-11-16T22:38:03.573Z,34.00
2022-11-16T22:43:07.760Z,34.03
2022-11-16T22:48:10.609Z,34.17
2022-11-16T22:53:13.456Z,33.47
2022-11-16T22:58:17.669Z,33.53
2022-11-16T23:03:20.571Z,33.95
2022-11-16T23:08:24.844Z,33.60
2022-11-16T23:13:46.465Z,33.17
2022-11-16T23:18:49.336Z,33.25
2022-11-16T23:24:21.101Z,33.22
2022-11-16T23:29:25.277Z,33.42
2022-11-16T23:34:28.204Z,33.50
2022-11-16T23:39:31.077Z,33.05
2022-11-16T23:44:35.289Z,33.45
2022-11-16T23:49:38.170Z,33.17
2022-11-16T23:54:41.073Z,33.58
2022-11-16T23:59:45.289Z,33.17
